Time;durP1;ratioP1;P1;durP2;ratioP2;P2;SDS_P1;SDS_P2;PMS_P1;PMS_P2;Temp;Humidity;BMP_temperature;BMP_pressure;BME280_temperature;BME280_humidity;BME280_pressure;Samples;Min_cycle;Max_cycle;Signal;HPM_P1;HPM_P2
2020/12/30 00:01:57;;;;;;;;;;;;;;;24.59;33.34;98800.59;5019374;28;1004;-56
2020/12/30 00:04:22;;;;;;;;;;;;;;;24.62;33.12;98801.97;5019472;28;1387;-60
2020/12/30 00:06:47;;;;;;;;;;;;;;;24.68;33.77;98816.16;5042404;28;1022;-58
2020/12/30 00:09:12;;;;;;;;;;;;;;;24.70;33.57;98816.69;5034895;28;1232;-57
2020/12/30 00:11:37;;;;;;;;;;;;;;;24.73;33.54;98814.34;5022409;28;1905;-58
2020/12/30 00:14:03;;;;;;;;;;;;;;;24.76;32.95;98818.34;5017010;28;1370;-58
2020/12/30 00:16:28;;;;;;;;;;;;;;;24.80;33.09;98824.00;5042461;28;1125;-56
2020/12/30 00:18:53;;;;;;;;;;;;;;;24.80;32.54;98822.13;5042510;28;1077;-60
2020/12/30 00:21:18;;;;;;;;;;;;;;;24.82;33.12;98813.84;5034374;28;1145;-57
2020/12/30 00:23:43;;;;;;;;;;;;;;;24.84;32.93;98817.84;5020458;28;1225;-59
2020/12/30 00:26:08;;;;;;;;;;;;;;;24.85;32.76;98811.41;5016354;28;1047;-59
2020/12/30 00:28:34;;;;;;;;;;;;;;;24.93;33.11;98820.00;5037809;28;1097;-60
2020/12/30 00:30:59;;;;;;;;;;;;;;;24.94;32.59;98829.66;5034946;28;1975;-58
2020/12/30 00:33:24;;;;;;;;;;;;;;;24.98;32.83;98820.84;5024735;28;1401;-56
2020/12/30 00:35:49;;;;;;;;;;;;;;;25.02;32.79;98829.13;5020035;28;1112;-59
2020/12/30 00:38:14;;;;;;;;;;;;;;;25.05;32.80;98831.28;5038020;28;1103;-61
2020/12/30 00:40:39;;;;;;;;;;;;;;;25.06;32.30;98827.53;5031361;28;1097;-59
2020/12/30 00:43:05;;;;;;;;;;;;;;;25.11;32.25;98827.53;5015878;28;1007;-59
2020/12/30 00:45:30;;;;;;;;;;;;;;;25.11;32.07;98827.53;5030889;28;1295;-61
2020/12/30 00:47:55;;;;;;;;;;;;;;;25.11;32.28;98830.22;5038672;28;1129;-58
2020/12/30 00:50:20;;;;;;;;;;;;;;;25.16;32.88;98832.13;5038663;28;1936;-61
2020/12/30 00:52:48;;;;;;;;;;;;;;;25.17;32.77;98834.53;5030806;28;1125;-62
2020/12/30 00:55:13;;;;;;;;;;;;;;;25.22;33.03;98841.78;5013917;28;1276;-62
2020/12/30 00:57:38;;;;;;;;;;;;;;;25.23;33.02;98834.56;5021471;28;1104;-56
2020/12/30 01:00:03;;;;;;;;;;;;;;;25.26;32.51;98834.03;5035697;28;1024;-61
2020/12/30 01:02:29;;;;;;;;;;;;;;;25.27;32.38;98839.13;5032448;28;1110;-61
2020/12/30 01:04:54;;;;;;;;;;;;;;;25.31;32.46;98842.06;5023027;28;1365;-60
2020/12/30 01:07:19;;;;;;;;;;;;;;;25.34;31.75;98838.88;5030761;28;1121;-60
2020/12/30 01:09:44;;;;;;;;;;;;;;;25.35;31.75;98840.47;5037825;28;1086;-57
2020/12/30 01:12:10;;;;;;;;;;;;;;;25.36;32.57;98844.78;5037243;28;1910;-54
2020/12/30 01:14:36;;;;;;;;;;;;;;;25.36;32.37;98854.69;5030483;28;1338;-60
2020/12/30 01:17:01;;;;;;;;;;;;;;;25.41;31.95;98844.78;5019304;28;1555;-62
2020/12/30 01:19:26;;;;;;;;;;;;;;;25.45;32.70;98859.28;5019570;28;1177;-61
2020/12/30 01:21:51;;;;;;;;;;;;;;;25.54;31.88;98866.81;5034474;28;1159;-57
2020/12/30 01:24:17;;;;;;;;;;;;;;;25.53;32.20;98863.31;5027910;28;1489;-59
2020/12/30 01:26:43;;;;;;;;;;;;;;;25.52;32.31;98863.59;5019193;28;1372;-58
2020/12/30 01:29:09;;;;;;;;;;;;;;;25.48;31.49;98865.97;5023321;28;1388;-57
2020/12/30 01:31:35;;;;;;;;;;;;;;;25.44;31.46;98857.66;5019972;28;1906;-57
2020/12/30 01:34:00;;;;;;;;;;;;;;;25.47;31.72;98863.59;5015288;28;1382;-57
2020/12/30 01:36:25;;;;;;;;;;;;;;;25.39;31.68;98864.88;5039411;28;1103;-58
2020/12/30 01:38:51;;;;;;;;;;;;;;;25.44;31.48;98863.00;5038098;28;1093;-55
2020/12/30 01:41:16;;;;;;;;;;;;;;;25.44;31.89;98860.34;5021362;28;1675;-56
2020/12/30 01:43:54;;;;;;;;;;;;;;;25.42;32.03;98872.38;4957103;28;100619;-58
2020/12/30 01:46:28;;;;;;;;;;;;;;;25.37;31.38;98873.19;5039219;28;1153;-58
2020/12/30 01:48:53;;;;;;;;;;;;;;;25.35;31.60;98871.84;5041108;28;1019;-58
2020/12/30 01:51:18;;;;;;;;;;;;;;;25.34;31.32;98879.09;5033139;28;1906;-58
2020/12/30 01:53:43;;;;;;;;;;;;;;;25.31;31.46;98879.63;5018564;28;1290;-59
2020/12/30 01:56:09;;;;;;;;;;;;;;;25.30;31.38;98872.66;5014931;28;1016;-57
2020/12/30 01:58:34;;;;;;;;;;;;;;;25.33;31.19;98874.81;5038355;28;1141;-58
2020/12/30 02:01:00;;;;;;;;;;;;;;;25.32;31.38;98878.56;5028484;28;1880;-57
2020/12/30 02:03:26;;;;;;;;;;;;;;;25.34;30.99;98883.63;5021780;28;1287;-58
2020/12/30 02:05:52;;;;;;;;;;;;;;;25.33;31.34;98882.03;5024504;28;1447;-61
2020/12/30 02:08:17;;;;;;;;;;;;;;;25.29;31.21;98871.03;5028209;28;1508;-59
2020/12/30 02:10:43;;;;;;;;;;;;;;;25.34;31.31;98886.31;5025583;28;1969;-57
2020/12/30 02:13:08;;;;;;;;;;;;;;;25.39;31.16;98884.47;5026453;28;1031;-58
2020/12/30 02:15:33;;;;;;;;;;;;;;;25.41;30.80;98892.22;5019381;28;1296;-57
2020/12/30 02:18:00;;;;;;;;;;;;;;;25.38;30.88;98895.44;5024633;28;1456;-57
2020/12/30 02:20:25;;;;;;;;;;;;;;;25.36;30.68;98897.59;5024361;28;1701;-57
2020/12/30 02:22:59;;;;;;;;;;;;;;;25.30;30.77;98892.22;5028638;28;1666;-58
2020/12/30 02:25:24;;;;;;;;;;;;;;;25.25;30.90;98894.09;5028308;28;1346;-59
2020/12/30 02:27:50;;;;;;;;;;;;;;;25.22;30.79;98891.94;5030561;28;1215;-57
2020/12/30 02:30:16;;;;;;;;;;;;;;;25.17;30.95;98890.03;5024107;28;1961;-58
2020/12/30 02:32:41;;;;;;;;;;;;;;;25.12;30.98;98888.16;5024652;28;1053;-57
2020/12/30 02:35:06;;;;;;;;;;;;;;;25.08;31.10;98888.94;5024566;28;1295;-59
2020/12/30 02:37:31;;;;;;;;;;;;;;;25.04;30.84;98885.97;5026205;28;1106;-57
2020/12/30 02:39:57;;;;;;;;;;;;;;;24.98;30.82;98887.84;5019773;28;1125;-59
2020/12/30 02:42:22;;;;;;;;;;;;;;;24.95;31.07;98885.69;5025621;28;1106;-58
2020/12/30 02:44:48;;;;;;;;;;;;;;;24.92;31.09;98896.13;5019922;28;1292;-59
2020/12/30 02:47:13;;;;;;;;;;;;;;;24.88;31.08;98890.50;5024718;28;1074;-59
2020/12/30 02:49:39;;;;;;;;;;;;;;;24.84;31.17;98890.19;5029186;28;1137;-59
2020/12/30 02:52:04;;;;;;;;;;;;;;;24.82;31.09;98892.34;5034136;28;1941;-58
2020/12/30 02:54:29;;;;;;;;;;;;;;;24.78;31.12;98896.63;5024281;28;1292;-58
2020/12/30 02:56:54;;;;;;;;;;;;;;;24.74;30.92;98908.91;5019413;28;1453;-58
2020/12/30 02:59:19;;;;;;;;;;;;;;;24.72;31.10;98905.66;5024773;28;1118;-58
2020/12/30 03:01:45;;;;;;;;;;;;;;;24.70;30.97;98900.59;5020160;28;1030;-58
2020/12/30 03:04:10;;;;;;;;;;;;;;;24.67;31.38;98905.66;5017799;28;1371;-57
2020/12/30 03:06:35;;;;;;;;;;;;;;;24.65;31.14;98899.75;5025668;28;1153;-58
2020/12/30 03:09:00;;;;;;;;;;;;;;;24.61;31.13;98898.66;5019178;28;1309;-58
2020/12/30 03:11:26;;;;;;;;;;;;;;;24.59;31.30;98897.03;5025668;28;1964;-57
2020/12/30 03:13:52;;;;;;;;;;;;;;;24.57;31.07;98891.13;5019651;28;1371;-59
2020/12/30 03:16:17;;;;;;;;;;;;;;;24.56;31.28;98899.44;5023625;28;1352;-59
2020/12/30 03:18:42;;;;;;;;;;;;;;;24.53;31.21;98906.13;5019539;28;1165;-59
2020/12/30 03:21:07;;;;;;;;;;;;;;;24.51;31.17;98908.25;5022993;28;1071;-59
2020/12/30 03:23:32;;;;;;;;;;;;;;;24.49;31.06;98913.06;5029578;28;1296;-59
2020/12/30 03:25:58;;;;;;;;;;;;;;;24.46;31.38;98910.91;5019324;28;1058;-58
2020/12/30 03:28:23;;;;;;;;;;;;;;;24.44;31.06;98908.50;5024694;28;1063;-59
2020/12/30 03:30:48;;;;;;;;;;;;;;;24.40;31.27;98903.91;5023490;28;1914;-59
2020/12/30 03:33:13;;;;;;;;;;;;;;;24.39;31.43;98916.50;5023223;28;1232;-58
2020/12/30 03:35:38;;;;;;;;;;;;;;;24.37;31.25;98918.63;5021123;28;1304;-58
2020/12/30 03:38:03;;;;;;;;;;;;;;;24.37;31.22;98917.81;5024802;28;1070;-57
2020/12/30 03:40:28;;;;;;;;;;;;;;;24.35;31.55;98917.25;5018764;28;1208;-59
2020/12/30 03:42:54;;;;;;;;;;;;;;;24.33;31.43;98914.88;5022232;28;1158;-58
2020/12/30 03:45:19;;;;;;;;;;;;;;;24.30;31.34;98920.72;5016538;28;1363;-58
2020/12/30 03:47:44;;;;;;;;;;;;;;;24.30;31.40;98912.69;5023562;28;1124;-58
2020/12/30 03:50:09;;;;;;;;;;;;;;;24.29;31.53;98925.25;5020934;28;1893;-59
2020/12/30 03:52:34;;;;;;;;;;;;;;;24.28;31.18;98922.84;5021272;28;1161;-58
2020/12/30 03:55:00;;;;;;;;;;;;;;;24.26;31.54;98928.47;5024026;28;1717;-58
2020/12/30 03:57:25;;;;;;;;;;;;;;;24.25;31.47;98926.84;5022283;28;1145;-58
2020/12/30 03:59:50;;;;;;;;;;;;;;;24.23;31.28;98920.16;5024262;28;1266;-57
2020/12/30 04:02:15;;;;;;;;;;;;;;;24.21;31.61;98933.78;5027949;28;1094;-59
2020/12/30 04:04:40;;;;;;;;;;;;;;;24.20;31.28;98937.53;5020490;28;1355;-58
2020/12/30 04:07:06;;;;;;;;;;;;;;;24.19;31.29;98925.19;5031080;28;1081;-56
2020/12/30 04:09:31;;;;;;;;;;;;;;;24.16;31.64;98928.38;5017526;28;1129;-57
2020/12/30 04:11:56;;;;;;;;;;;;;;;24.16;31.54;98935.63;5024574;28;1958;-58
2020/12/30 04:14:21;;;;;;;;;;;;;;;24.14;31.39;98928.66;5022505;28;1378;-57
2020/12/30 04:16:46;;;;;;;;;;;;;;;24.13;31.49;98934.25;5023008;28;1533;-58
2020/12/30 04:19:11;;;;;;;;;;;;;;;24.11;31.34;98931.84;5023648;28;1059;-57
2020/12/30 04:21:37;;;;;;;;;;;;;;;24.11;31.65;98936.38;5022012;28;1379;-57
2020/12/30 04:24:03;;;;;;;;;;;;;;;24.10;31.73;98938.28;5025306;28;1371;-56
2020/12/30 04:26:28;;;;;;;;;;;;;;;24.07;31.46;98944.13;5024284;28;1378;-57
2020/12/30 04:28:53;;;;;;;;;;;;;;;24.06;31.66;98941.69;5023993;28;1161;-56
2020/12/30 04:31:18;;;;;;;;;;;;;;;24.04;31.74;98943.81;5024375;28;1890;-58
2020/12/30 04:33:44;;;;;;;;;;;;;;;24.03;31.51;98940.34;5018908;28;1295;-59
2020/12/30 04:36:10;;;;;;;;;;;;;;;24.02;31.46;98945.94;5030059;28;1011;-57
2020/12/30 04:38:35;;;;;;;;;;;;;;;24.00;31.50;98948.91;5018207;28;1130;-59
2020/12/30 04:41:02;;;;;;;;;;;;;;;23.98;31.76;98951.78;5027572;28;1141;-59
2020/12/30 04:43:28;;;;;;;;;;;;;;;23.99;31.70;98957.97;5028967;28;1301;-56
2020/12/30 04:45:54;;;;;;;;;;;;;;;23.97;31.70;98957.41;5021909;28;1138;-58
2020/12/30 04:48:20;;;;;;;;;;;;;;;23.96;31.53;98961.94;5021327;28;1058;-57
2020/12/30 04:50:45;;;;;;;;;;;;;;;23.96;31.87;98961.16;5022684;28;1957;-59
2020/12/30 04:53:12;;;;;;;;;;;;;;;23.93;31.88;98967.81;5029607;28;1023;-57
2020/12/30 04:55:37;;;;;;;;;;;;;;;23.94;31.62;98971.31;5018151;28;1275;-58
2020/12/30 04:58:04;;;;;;;;;;;;;;;23.92;31.65;98966.19;5024123;28;1220;-59
2020/12/30 05:00:30;;;;;;;;;;;;;;;23.92;31.70;98963.50;5022016;28;1071;-57
2020/12/30 05:02:56;;;;;;;;;;;;;;;23.91;31.84;98963.78;5024017;28;1212;-57
2020/12/30 05:05:21;;;;;;;;;;;;;;;23.89;32.06;98966.69;5027061;28;1306;-58
2020/12/30 05:07:47;;;;;;;;;;;;;;;23.91;31.73;98979.84;5013726;28;1087;-56
2020/12/30 05:10:16;;;;;;;;;;;;;;;23.89;32.09;98974.72;5019580;28;1906;-54
2020/12/30 05:12:42;;;;;;;;;;;;;;;23.89;32.19;98976.59;5020820;28;972;-56
2020/12/30 05:15:07;;;;;;;;;;;;;;;23.89;31.97;98977.41;5022288;28;1355;-58
2020/12/30 05:17:35;;;;;;;;;;;;;;;23.87;32.13;98984.88;5020994;28;1383;-59
2020/12/30 05:20:00;;;;;;;;;;;;;;;23.87;32.06;98982.19;5019311;28;1083;-58
2020/12/30 05:22:25;;;;;;;;;;;;;;;23.86;31.92;98988.63;5028262;28;1131;-57
2020/12/30 05:24:52;;;;;;;;;;;;;;;23.84;32.21;98988.84;5019638;28;1408;-57
2020/12/30 05:27:18;;;;;;;;;;;;;;;23.83;32.30;98994.47;5019072;28;1117;-56
2020/12/30 05:29:45;;;;;;;;;;;;;;;23.84;32.13;98999.56;5026167;28;1098;-58
2020/12/30 05:32:10;;;;;;;;;;;;;;;23.83;32.00;99005.97;5020820;28;1957;-58
2020/12/30 05:34:35;;;;;;;;;;;;;;;23.83;32.09;99010.53;5020426;28;1375;-58
2020/12/30 05:37:00;;;;;;;;;;;;;;;23.82;32.12;99014.25;5021377;28;1130;-58
2020/12/30 05:39:30;;;;;;;;;;;;;;;23.81;32.25;99018.00;5022536;28;1262;-57
2020/12/30 05:42:14;;;;;;;;;;;;;;;23.80;32.07;99011.81;5023930;28;1079;-57
2020/12/30 05:44:40;;;;;;;;;;;;;;;23.79;32.12;99014.78;5027641;28;1994;-59
2020/12/30 05:47:09;;;;;;;;;;;;;;;23.79;31.99;99017.44;5026912;28;1067;-57
2020/12/30 05:49:34;;;;;;;;;;;;;;;23.77;31.94;99022.25;5032087;28;1084;-57
2020/12/30 05:52:09;;;;;;;;;;;;;;;23.76;32.11;99018.75;5033599;28;1894;-57
2020/12/30 05:54:35;;;;;;;;;;;;;;;23.76;31.96;99018.75;5020789;28;1360;-56
2020/12/30 05:57:00;;;;;;;;;;;;;;;23.76;32.11;99024.09;5032408;28;1038;-57
2020/12/30 05:59:27;;;;;;;;;;;;;;;23.76;32.03;99032.13;5021982;28;1255;-58
2020/12/30 06:01:55;;;;;;;;;;;;;;;23.75;31.93;99027.81;5019154;28;1083;-57
2020/12/30 06:04:20;;;;;;;;;;;;;;;23.75;32.05;99032.38;5026770;28;1281;-57
2020/12/30 06:06:47;;;;;;;;;;;;;;;23.74;32.16;99028.09;5021692;28;1042;-57
2020/12/30 06:09:17;;;;;;;;;;;;;;;23.74;32.20;99036.91;5023641;28;1221;-58
2020/12/30 06:11:52;;;;;;;;;;;;;;;23.73;32.24;99046.00;5030651;28;1906;-57
2020/12/30 06:14:18;;;;;;;;;;;;;;;23.72;31.93;99052.41;5019167;28;1227;-56
2020/12/30 06:16:44;;;;;;;;;;;;;;;23.71;32.13;99048.13;5026039;28;1161;-58
2020/12/30 06:19:10;;;;;;;;;;;;;;;23.71;32.09;99048.94;5019260;28;1149;-58
2020/12/30 06:21:39;;;;;;;;;;;;;;;23.70;32.28;99054.53;5023392;28;1138;-57
2020/12/30 06:24:09;;;;;;;;;;;;;;;23.70;31.92;99054.53;5019137;28;1267;-58
2020/12/30 06:26:36;;;;;;;;;;;;;;;23.69;32.23;99052.91;5027406;28;1138;-57
2020/12/30 06:29:01;;;;;;;;;;;;;;;23.68;31.95;99053.97;5026817;28;1137;-57
2020/12/30 06:31:27;;;;;;;;;;;;;;;23.68;31.95;99054.78;5026433;28;1963;-58
2020/12/30 06:33:55;;;;;;;;;;;;;;;23.69;31.92;99060.94;5026843;28;1429;-59
2020/12/30 06:36:24;;;;;;;;;;;;;;;23.67;32.02;99050.50;5019632;28;1150;-58
2020/12/30 06:38:49;;;;;;;;;;;;;;;23.66;31.88;99048.06;5023884;28;1201;-56
2020/12/30 06:41:14;;;;;;;;;;;;;;;23.66;32.14;99059.59;5028862;28;1052;-56
2020/12/30 06:43:46;;;;;;;;;;;;;;;23.65;31.92;99057.97;5022671;28;1279;-57
2020/12/30 06:46:15;;;;;;;;;;;;;;;23.65;31.94;99065.16;5025402;28;1054;-55
2020/12/30 06:48:53;;;;;;;;;;;;;;;23.65;31.99;99062.50;5021506;28;1136;-55
2020/12/30 06:51:18;;;;;;;;;;;;;;;23.64;31.93;99066.22;5028754;28;1899;-56
2020/12/30 06:53:53;;;;;;;;;;;;;;;23.63;32.06;99067.28;5021795;28;1281;-57
2020/12/30 06:56:36;;;;;;;;;;;;;;;23.62;31.89;99073.69;5024267;28;1046;-57
2020/12/30 06:59:02;;;;;;;;;;;;;;;23.63;32.14;99070.78;5022219;28;1153;-59
2020/12/30 07:01:27;;;;;;;;;;;;;;;23.62;31.87;99077.19;5022923;28;1410;-55
2020/12/30 07:03:52;;;;;;;;;;;;;;;23.61;32.07;99075.59;5023016;28;1295;-57
2020/12/30 07:06:22;;;;;;;;;;;;;;;23.61;31.92;99086.28;5023302;28;1063;-58
2020/12/30 07:08:47;;;;;;;;;;;;;;;23.61;31.78;99083.59;5020899;28;1379;-58
2020/12/30 07:11:12;;;;;;;;;;;;;;;23.60;31.98;99092.69;5023069;28;1906;-58
2020/12/30 07:13:40;;;;;;;;;;;;;;;23.60;32.04;99083.84;5023226;28;1370;-58
2020/12/30 07:16:18;;;;;;;;;;;;;;;23.60;31.83;99091.88;5024011;28;1027;-57
2020/12/30 07:18:50;;;;;;;;;;;;;;;23.59;32.01;99095.59;5022973;28;1070;-56
2020/12/30 07:21:16;;;;;;;;;;;;;;;23.57;31.89;99098.53;5028072;28;1099;-57
2020/12/30 07:23:45;;;;;;;;;;;;;;;23.58;31.86;99107.34;5022245;28;1391;-57
2020/12/30 07:26:20;;;;;;;;;;;;;;;23.57;31.73;99109.25;5022693;28;1051;-55
2020/12/30 07:28:45;;;;;;;;;;;;;;;23.57;31.73;99114.59;5022738;28;1134;-56
2020/12/30 07:31:12;;;;;;;;;;;;;;;23.56;31.86;99127.13;5019551;28;1959;-56
2020/12/30 07:33:37;;;;;;;;;;;;;;;23.56;31.87;99126.34;5021281;28;1322;-57
2020/12/30 07:36:03;;;;;;;;;;;;;;;23.56;31.80;99129.81;5022005;28;1384;-58
2020/12/30 07:38:29;;;;;;;;;;;;;;;23.55;31.68;99133.53;5025489;28;1360;-58
2020/12/30 07:41:01;;;;;;;;;;;;;;;23.55;31.83;99146.91;5019603;28;1445;-56
2020/12/30 07:43:26;;;;;;;;;;;;;;;23.56;31.68;99150.41;5023448;28;2059;-58
2020/12/30 07:45:52;;;;;;;;;;;;;;;23.54;31.60;99156.00;5025519;28;2041;-55
2020/12/30 07:48:17;;;;;;;;;;;;;;;23.54;31.68;99152.53;5027434;28;1079;-58
2020/12/30 07:50:48;;;;;;;;;;;;;;;23.54;31.92;99163.22;5030937;28;1902;-57
2020/12/30 07:53:17;;;;;;;;;;;;;;;23.60;31.47;99167.59;5025939;28;1085;-55
2020/12/30 07:55:42;;;;;;;;;;;;;;;23.62;31.96;99172.69;5018384;28;1286;-56
2020/12/30 07:58:08;;;;;;;;;;;;;;;23.59;31.90;99176.66;5026929;28;1171;-54
2020/12/30 08:00:33;;;;;;;;;;;;;;;23.57;31.96;99186.81;5014047;28;1258;-51
2020/12/30 08:02:58;;;;;;;;;;;;;;;23.55;31.86;99179.00;5013141;28;1215;-55
2020/12/30 08:05:25;;;;;;;;;;;;;;;23.54;31.75;99179.28;5013937;28;1252;-55
2020/12/30 08:07:50;;;;;;;;;;;;;;;23.54;31.59;99181.94;5014234;28;1223;-53
2020/12/30 08:10:20;;;;;;;;;;;;;;;23.53;31.97;99183.00;5015599;28;1902;-55
2020/12/30 08:12:45;;;;;;;;;;;;;;;23.52;31.69;99187.53;5014990;28;1251;-54
2020/12/30 08:15:11;;;;;;;;;;;;;;;23.52;31.79;99194.75;5014780;28;1389;-53
2020/12/30 08:17:36;;;;;;;;;;;;;;;23.51;31.55;99187.78;5014923;28;1282;-56
2020/12/30 08:20:05;;;;;;;;;;;;;;;23.50;31.85;99189.66;5015069;28;1245;-53
2020/12/30 08:22:30;;;;;;;;;;;;;;;23.49;31.64;99193.38;5015178;28;1296;-56
2020/12/30 08:24:58;;;;;;;;;;;;;;;23.49;31.56;99198.72;5014879;28;1289;-55
2020/12/30 08:27:25;;;;;;;;;;;;;;;23.49;31.63;99204.06;5022682;28;1055;-55
2020/12/30 08:29:51;;;;;;;;;;;;;;;23.49;31.80;99205.94;5019459;28;1221;-53
2020/12/30 08:32:16;;;;;;;;;;;;;;;23.49;31.58;99208.63;5013499;28;1898;-55
2020/12/30 08:34:45;;;;;;;;;;;;;;;23.48;31.76;99210.47;5020041;28;1263;-54
2020/12/30 08:37:11;;;;;;;;;;;;;;;23.49;31.57;99216.66;5022449;28;1004;-57
2020/12/30 08:39:44;;;;;;;;;;;;;;;23.48;31.54;99217.72;5025481;28;1066;-52
2020/12/30 08:42:19;;;;;;;;;;;;;;;23.48;31.67;99215.03;5015577;28;1398;-56
2020/12/30 08:44:47;;;;;;;;;;;;;;;23.46;31.58;99220.63;5023030;28;1296;-52
2020/12/30 08:47:13;;;;;;;;;;;;;;;23.47;31.69;99218.75;5027715;28;1062;-53
2020/12/30 08:49:41;;;;;;;;;;;;;;;23.47;31.94;99221.44;5023709;28;1170;-53
2020/12/30 08:52:20;;;;;;;;;;;;;;;23.46;31.59;99225.97;5025379;28;1894;-53
2020/12/30 08:54:45;;;;;;;;;;;;;;;23.45;31.68;99229.69;5019055;28;1283;-54
2020/12/30 08:57:10;;;;;;;;;;;;;;;23.46;31.63;99238.53;5033161;28;1012;-55
2020/12/30 08:59:35;;;;;;;;;;;;;;;23.46;31.55;99249.25;5026809;28;1209;-55
2020/12/30 09:02:15;;;;;;;;;;;;;;;23.46;31.77;99257.25;5031759;28;1097;-56
2020/12/30 09:04:51;;;;;;;;;;;;;;;23.46;31.72;99246.56;5030073;28;1426;-55
2020/12/30 09:07:23;;;;;;;;;;;;;;;23.46;31.62;99243.88;5032378;28;1014;-57
2020/12/30 09:09:59;;;;;;;;;;;;;;;23.45;31.81;99247.63;5021257;28;1139;-53
2020/12/30 09:12:24;;;;;;;;;;;;;;;23.45;31.50;99253.75;5027972;28;1955;-55
2020/12/30 09:14:49;;;;;;;;;;;;;;;23.44;31.88;99257.50;5018915;28;1390;-53
2020/12/30 09:17:15;;;;;;;;;;;;;;;23.45;31.46;99258.31;5019973;28;1270;-55
2020/12/30 09:19:40;;;;;;;;;;;;;;;23.44;31.65;99252.13;5024662;28;1208;-53
2020/12/30 09:22:06;;;;;;;;;;;;;;;23.45;31.75;99269.00;5020169;28;1332;-52
2020/12/30 09:24:35;;;;;;;;;;;;;;;23.44;31.60;99273.53;5027535;28;1279;-56
2020/12/30 09:27:13;;;;;;;;;;;;;;;23.45;31.68;99275.16;5022194;28;1019;-56
2020/12/30 09:29:39;;;;;;;;;;;;;;;23.46;31.76;99274.09;5020465;28;1138;-56
2020/12/30 09:32:04;;;;;;;;;;;;;;;23.46;31.58;99275.97;5027264;28;1906;-52
2020/12/30 09:34:30;;;;;;;;;;;;;;;23.45;31.68;99277.84;5019503;28;1364;-55
2020/12/30 09:36:56;;;;;;;;;;;;;;;23.46;31.57;99286.69;5017740;28;1012;-54
2020/12/30 09:39:22;;;;;;;;;;;;;;;23.46;31.50;99278.66;5027611;28;1094;-55
2020/12/30 09:41:47;;;;;;;;;;;;;;;23.46;31.51;99284.81;5027072;28;1133;-54
2020/12/30 09:44:12;;;;;;;;;;;;;;;23.45;31.52;99287.72;5034248;28;1285;-53
2020/12/30 09:46:47;;;;;;;;;;;;;;;23.44;31.70;99281.56;5024683;28;1078;-53
2020/12/30 09:49:12;;;;;;;;;;;;;;;23.46;31.50;99282.13;5016493;28;1306;-54
2020/12/30 09:51:37;;;;;;;;;;;;;;;23.47;31.59;99293.66;5014098;28;1897;-55
2020/12/30 09:54:02;;;;;;;;;;;;;;;23.48;31.54;99297.94;5014092;28;1287;-57
2020/12/30 09:56:27;;;;;;;;;;;;;;;23.47;31.49;99294.44;5017949;28;1024;-56
2020/12/30 09:58:52;;;;;;;;;;;;;;;23.47;31.57;99286.44;5020214;28;1173;-54
2020/12/30 10:01:21;;;;;;;;;;;;;;;23.48;31.69;99300.63;5019591;28;1138;-54
2020/12/30 10:03:46;;;;;;;;;;;;;;;23.48;31.58;99305.97;5019712;28;1338;-55
2020/12/30 10:06:11;;;;;;;;;;;;;;;23.48;31.62;99311.31;5023844;28;1130;-55
2020/12/30 10:08:36;;;;;;;;;;;;;;;23.51;31.76;99308.16;5021209;28;1158;-55
2020/12/30 10:11:02;;;;;;;;;;;;;;;23.49;31.76;99305.72;5020666;28;1902;-56
2020/12/30 10:13:27;;;;;;;;;;;;;;;23.48;31.71;99305.97;5023722;28;1313;-55
2020/12/30 10:15:52;;;;;;;;;;;;;;;23.49;31.77;99299.56;5027677;28;1130;-57
2020/12/30 10:18:17;;;;;;;;;;;;;;;23.50;31.94;99295.84;5016933;28;1134;-52
2020/12/30 10:20:42;;;;;;;;;;;;;;;23.51;32.15;99297.47;5025212;28;1204;-55
2020/12/30 10:23:09;;;;;;;;;;;;;;;23.51;31.78;99300.13;5017349;28;1082;-55
2020/12/30 10:25:34;;;;;;;;;;;;;;;23.50;31.89;99301.97;5028274;28;1426;-57
2020/12/30 10:27:59;;;;;;;;;;;;;;;23.51;31.85;99308.16;5020939;28;1325;-54
2020/12/30 10:30:24;;;;;;;;;;;;;;;23.50;31.73;99299.31;5025816;28;1897;-55
2020/12/30 10:32:49;;;;;;;;;;;;;;;23.51;31.80;99297.47;5029388;28;1229;-54
2020/12/30 10:35:15;;;;;;;;;;;;;;;23.50;32.00;99304.66;5019893;28;1268;-53
2020/12/30 10:37:40;;;;;;;;;;;;;;;23.50;32.11;99298.50;5023866;28;1075;-56
2020/12/30 10:40:05;;;;;;;;;;;;;;;23.50;32.04;99301.97;5023593;28;1054;-53
2020/12/30 10:42:30;;;;;;;;;;;;;;;23.50;31.94;99301.97;5023804;28;1122;-57
2020/12/30 10:44:55;;;;;;;;;;;;;;;23.52;31.89;99307.09;5023159;28;1293;-55
2020/12/30 10:47:20;;;;;;;;;;;;;;;23.52;32.11;99309.78;5025261;28;1478;-57
2020/12/30 10:49:45;;;;;;;;;;;;;;;23.50;31.91;99304.66;5022173;28;1105;-56
2020/12/30 10:52:12;;;;;;;;;;;;;;;23.53;31.88;99312.19;5024478;28;2136;-55
2020/12/30 10:54:42;;;;;;;;;;;;;;;23.53;32.12;99319.44;5026055;28;1288;-55
2020/12/30 10:57:07;;;;;;;;;;;;;;;23.53;32.26;99314.06;5017880;28;1477;-56
2020/12/30 10:59:32;;;;;;;;;;;;;;;23.57;32.22;99301.84;5030534;28;1098;-54
2020/12/30 11:01:57;;;;;;;;;;;;;;;23.59;32.23;99315.78;5018122;28;1324;-57
2020/12/30 11:04:22;;;;;;;;;;;;;;;23.60;32.23;99306.69;5028091;28;1343;-57
2020/12/30 11:06:48;;;;;;;;;;;;;;;23.61;32.35;99302.13;5023669;28;1181;-56
2020/12/30 11:09:13;;;;;;;;;;;;;;;23.62;32.15;99304.59;5020437;28;1184;-54
2020/12/30 11:11:40;;;;;;;;;;;;;;;23.65;32.34;99304.09;5019664;28;1961;-54
2020/12/30 11:14:05;;;;;;;;;;;;;;;23.65;32.07;99298.75;5019663;28;1287;-52
2020/12/30 11:16:30;;;;;;;;;;;;;;;23.69;32.16;99304.41;5032836;28;1191;-56
2020/12/30 11:18:55;;;;;;;;;;;;;;;23.72;32.15;99301.25;5020985;28;1070;-56
2020/12/30 11:21:20;;;;;;;;;;;;;;;23.74;32.52;99306.34;5025415;28;1126;-56
2020/12/30 11:23:46;;;;;;;;;;;;;;;23.75;32.23;99311.44;5023198;28;1251;-57
2020/12/30 11:26:11;;;;;;;;;;;;;;;23.73;32.50;99318.13;5032139;28;1092;-52
2020/12/30 11:28:36;;;;;;;;;;;;;;;23.69;32.37;99315.94;5022930;28;1812;-56
2020/12/30 11:31:01;;;;;;;;;;;;;;;23.69;32.58;99309.75;5022746;28;1961;-56
2020/12/30 11:33:27;;;;;;;;;;;;;;;23.68;32.49;99322.34;5025432;28;1142;-58
2020/12/30 11:35:52;;;;;;;;;;;;;;;23.70;32.30;99312.19;5024873;28;1219;-55
2020/12/30 11:38:17;;;;;;;;;;;;;;;23.68;32.42;99311.63;5024181;28;1078;-56
2020/12/30 11:40:42;;;;;;;;;;;;;;;23.68;32.32;99316.16;5017825;28;1122;-57
2020/12/30 11:43:08;;;;;;;;;;;;;;;23.66;32.05;99321.78;5022148;28;1110;-55
2020/12/30 11:45:33;;;;;;;;;;;;;;;23.65;32.32;99313.97;5028558;28;1266;-56
2020/12/30 11:47:59;;;;;;;;;;;;;;;23.44;31.27;99304.84;5028419;28;1187;-54
2020/12/30 11:50:24;;;;;;;;;;;;;;;23.43;31.19;99309.34;5017648;28;1955;-56
2020/12/30 11:52:49;;;;;;;;;;;;;;;23.44;31.09;99312.84;5025710;28;1098;-56
2020/12/30 11:55:14;;;;;;;;;;;;;;;23.44;31.08;99318.22;5025799;28;1264;-57
2020/12/30 11:57:39;;;;;;;;;;;;;;;23.42;30.87;99305.06;5022356;28;1122;-57
2020/12/30 12:00:06;;;;;;;;;;;;;;;23.42;31.04;99310.41;5025162;28;1229;-55
2020/12/30 12:02:31;;;;;;;;;;;;;;;23.40;30.68;99312.53;5017307;28;1087;-58
2020/12/30 12:04:58;;;;;;;;;;;;;;;23.39;30.64;99317.06;5021765;28;1282;-57
2020/12/30 12:07:24;;;;;;;;;;;;;;;23.37;30.60;99311.16;5017346;28;1130;-57
2020/12/30 12:09:49;;;;;;;;;;;;;;;23.36;30.52;99317.56;5025103;28;1367;-56
2020/12/30 12:12:14;;;;;;;;;;;;;;;23.36;30.54;99328.25;5023618;28;1958;-57
2020/12/30 12:14:39;;;;;;;;;;;;;;;23.34;30.50;99321.50;5021911;28;1323;-57
2020/12/30 12:17:05;;;;;;;;;;;;;;;23.32;30.08;99326.28;5023962;28;1407;-52
2020/12/30 12:19:30;;;;;;;;;;;;;;;23.32;30.44;99321.78;5017404;28;1082;-55
2020/12/30 12:21:55;;;;;;;;;;;;;;;23.32;30.69;99324.44;5024262;28;1430;-53
2020/12/30 12:24:20;;;;;;;;;;;;;;;23.31;30.30;99316.66;5022659;28;1314;-55
2020/12/30 12:26:45;;;;;;;;;;;;;;;23.31;30.48;99322.81;5022251;28;1255;-51
2020/12/30 12:29:22;;;;;;;;;;;;;;;23.30;29.92;99328.41;5024006;28;1216;-51
2020/12/30 12:31:59;;;;;;;;;;;;;;;23.23;30.38;99312.50;5021538;28;1894;-51
2020/12/30 12:34:24;;;;;;;;;;;;;;;23.28;30.10;99325.97;5022018;28;1352;-54
2020/12/30 12:36:49;;;;;;;;;;;;;;;23.20;30.06;99315.66;5026425;28;1371;-54
2020/12/30 12:39:14;;;;;;;;;;;;;;;23.25;29.98;99329.13;5023278;28;1137;-55
2020/12/30 12:41:40;;;;;;;;;;;;;;;23.24;29.88;99335.53;5020610;28;1248;-53
2020/12/30 12:44:05;;;;;;;;;;;;;;;23.23;29.94;99333.88;5018190;28;1287;-55
2020/12/30 12:46:30;;;;;;;;;;;;;;;23.22;29.86;99338.41;5022767;28;1394;-54
2020/12/30 12:48:55;;;;;;;;;;;;;;;23.21;30.05;99334.09;5026411;28;1105;-53
2020/12/30 12:51:20;;;;;;;;;;;;;;;23.21;30.43;99336.78;5021986;28;1890;-51
2020/12/30 12:53:45;;;;;;;;;;;;;;;23.22;30.14;99330.38;5021421;28;1323;-55